Time;durP1;ratioP1;P1;durP2;ratioP2;P2;SDS_P1;SDS_P2;PMS_P1;PMS_P2;Temp;Humidity;BMP_temperature;BMP_pressure;BME280_temperature;BME280_humidity;BME280_pressure;Samples;Min_cycle;Max_cycle;Signal;HPM_P1;HPM_P2
2023/09/19 00:01:58;;;;;;;7.93;2.05;;;14.20;99.90;;;13.61;100.00;101204.72;4184263;28;20029;-73
2023/09/19 00:03:59;;;;;;;7.65;1.77;;;14.20;99.90;;;13.61;100.00;101202.06;4195965;28;20025;-73
2023/09/19 00:06:00;;;;;;;8.57;2.15;;;14.20;99.90;;;13.61;100.00;101207.38;4186951;28;20052;-73
2023/09/19 00:08:04;;;;;;;8.20;2.22;;;14.20;99.90;;;13.58;100.00;101202.41;4187664;28;20054;-73
2023/09/19 00:10:05;;;;;;;6.18;1.55;;;14.20;99.90;;;13.57;100.00;101200.72;4200960;28;20483;-73
2023/09/19 00:12:09;;;;;;;8.77;2.13;;;14.20;99.90;;;13.57;100.00;101208.69;4201893;28;20056;-73
2023/09/19 00:14:10;;;;;;;10.80;3.20;;;14.20;99.90;;;13.56;100.00;101209.69;4201801;28;20052;-73
2023/09/19 00:16:11;;;;;;;14.68;2.58;;;14.20;99.90;;;13.56;100.00;101205.19;4202063;28;20024;-73
2023/09/19 00:18:15;;;;;;;4.85;2.13;;;14.20;99.90;;;13.55;100.00;101208.03;4201866;28;20093;-73
2023/09/19 00:20:17;;;;;;;9.60;2.05;;;14.20;99.90;;;13.53;100.00;101207.38;4201735;28;20071;-73
2023/09/19 00:22:19;;;;;;;8.75;2.10;;;14.20;99.90;;;13.54;100.00;101207.19;4201685;28;20020;-73
2023/09/19 00:24:19;;;;;;;5.20;1.70;;;14.20;99.90;;;13.52;100.00;101197.75;4201643;28;20111;-73
2023/09/19 00:26:20;;;;;;;5.80;1.80;;;14.20;99.90;;;13.53;100.00;101194.13;4201796;28;20036;-73
2023/09/19 00:28:21;;;;;;;8.80;2.17;;;14.20;99.90;;;13.51;100.00;101198.75;4201703;28;20044;-73
2023/09/19 00:30:24;;;;;;;9.65;2.00;;;14.20;99.90;;;13.53;100.00;101196.78;4201578;28;20033;-73
2023/09/19 00:32:24;;;;;;;10.23;2.00;;;14.20;99.90;;;13.51;100.00;101193.44;4201773;28;20071;-73
2023/09/19 00:34:25;;;;;;;9.88;1.92;;;14.20;99.90;;;13.49;100.00;101192.78;4201949;28;20028;-73
2023/09/19 00:36:26;;;;;;;7.43;2.15;;;14.20;99.90;;;13.49;100.00;101196.28;4189295;28;20033;-73
2023/09/19 00:38:27;;;;;;;12.18;2.67;;;14.10;99.90;;;13.47;100.00;101184.19;4199980;28;20048;-73
2023/09/19 00:40:29;;;;;;;12.38;2.70;;;14.10;99.90;;;13.44;100.00;101189.81;4185006;28;20033;-73
2023/09/19 00:42:30;;;;;;;8.68;2.53;;;14.10;99.90;;;13.42;100.00;101197.06;4185189;28;20039;-73
2023/09/19 00:44:31;;;;;;;10.25;3.00;;;14.00;99.90;;;13.39;100.00;101192.09;4195813;28;20484;-73
2023/09/19 00:46:32;;;;;;;8.27;3.05;;;14.00;99.90;;;13.38;100.00;101193.09;4186099;28;20100;-73
2023/09/19 00:48:43;;;;;;;10.70;2.90;;;14.00;99.90;;;13.38;100.00;101195.75;4185067;28;20047;-73
2023/09/19 00:50:47;;;;;;;6.63;2.28;;;14.00;99.90;;;13.37;100.00;101199.38;4192108;28;20024;-73
2023/09/19 00:52:50;;;;;;;;;;;14.00;99.90;;;13.32;100.00;101191.09;4183753;28;20029;-73
2023/09/19 00:54:52;;;;;;;8.68;2.63;;;14.00;99.90;;;13.30;100.00;101192.09;4183691;28;19916;-73
2023/09/19 00:56:54;;;;;;;9.05;2.38;;;14.00;99.90;;;13.31;100.00;101192.91;4189198;28;20116;-73
2023/09/19 00:58:55;;;;;;;11.52;3.13;;;14.00;99.90;;;13.29;100.00;101187.78;4183541;28;20112;-73
2023/09/19 01:00:56;;;;;;;9.63;2.65;;;13.90;99.90;;;13.28;100.00;101182.66;4200423;28;20028;-73
2023/09/19 01:02:57;;;;;;;6.45;2.17;;;13.90;99.90;;;13.27;100.00;101189.75;4199161;28;20499;-73
2023/09/19 01:05:04;;;;;;;6.78;2.20;;;13.90;99.90;;;13.30;100.00;101188.59;4188932;28;20021;-73
2023/09/19 01:07:06;;;;;;;8.57;2.90;;;13.90;99.90;;;13.30;100.00;101183.31;4194303;28;20036;-73
2023/09/19 01:09:08;;;;;;;8.68;2.42;;;14.00;99.90;;;13.32;100.00;101187.44;4187096;28;20021;-73
2023/09/19 01:11:15;;;;;;;10.13;2.95;;;13.90;99.90;;;13.34;100.00;101197.06;4187022;28;20120;-73
2023/09/19 01:13:33;;;;;;;9.48;2.75;;;14.00;99.90;;;13.35;100.00;101196.09;4188054;28;20036;-73
2023/09/19 01:15:46;;;;;;;10.35;2.65;;;14.00;99.90;;;13.37;100.00;101194.09;4193079;28;20036;-73
2023/09/19 01:18:15;;;;;;;7.05;1.95;;;14.00;99.90;;;13.39;100.00;101194.75;4192136;28;20025;-73
2023/09/19 01:20:37;;;;;;;13.20;2.10;;;14.00;99.90;;;13.37;100.00;101196.75;4203086;28;20044;-73
2023/09/19 01:22:55;;;;;;;7.07;1.55;;;14.00;99.90;;;13.35;100.00;101198.72;4198719;28;20025;-73
2023/09/19 01:25:43;;;;;;;7.70;2.65;;;14.00;99.90;;;13.32;100.00;101194.56;4186493;28;20032;-73
2023/09/19 01:28:36;;;;;;;9.73;1.95;;;14.00;99.90;;;13.29;100.00;101203.66;4180491;28;20033;-73
2023/09/19 01:30:43;;;;;;;7.47;1.90;;;14.00;99.90;;;13.29;100.00;101197.53;4204127;28;20115;-73
2023/09/19 01:32:46;;;;;;;10.63;1.73;;;14.00;99.90;;;13.31;100.00;101200.88;4196221;28;20040;-73
2023/09/19 01:35:00;;;;;;;9.73;1.83;;;14.00;99.90;;;13.31;100.00;101195.56;4188415;28;20033;-73
2023/09/19 01:37:02;;;;;;;10.30;2.38;;;14.00;99.90;;;13.29;100.00;101198.38;4187231;28;20049;-73
2023/09/19 01:39:13;;;;;;;12.68;2.70;;;14.00;99.90;;;13.31;100.00;101192.91;4187161;28;20049;-73
2023/09/19 01:41:40;;;;;;;10.18;2.70;;;14.00;99.90;;;13.31;100.00;101192.91;4186366;28;20074;-73
2023/09/19 01:43:45;;;;;;;5.47;1.80;;;14.00;99.90;;;13.29;100.00;101193.06;4190003;28;20220;-73
2023/09/19 01:45:49;;;;;;;7.57;1.63;;;14.00;99.90;;;13.32;100.00;101199.06;4195160;28;20579;-73
2023/09/19 01:47:56;;;;;;;9.23;2.30;;;13.90;99.90;;;13.28;100.00;101187.94;4187484;28;20439;-73
2023/09/19 01:50:23;;;;;;;6.85;2.15;;;13.90;99.90;;;13.27;100.00;101189.75;4201451;28;20539;-73
2023/09/19 01:52:33;;;;;;;6.35;2.15;;;13.90;99.90;;;13.23;100.00;101199.00;4193741;28;20029;-73
2023/09/19 01:54:45;;;;;;;9.60;1.50;;;13.90;99.90;;;13.18;100.00;101184.59;4199350;28;20020;-73
2023/09/19 01:57:28;;;;;;;8.02;1.95;;;13.90;99.90;;;13.17;100.00;101189.06;4190918;28;20400;-74
2023/09/19 01:59:43;;;;;;;7.60;1.90;;;13.90;99.90;;;13.15;100.00;101177.81;4193513;28;20104;-73
2023/09/19 02:01:46;;;;;;;6.57;2.13;;;13.80;99.90;;;13.13;100.00;101179.81;4191253;28;20528;-73
2023/09/19 02:03:49;;;;;;;7.00;1.52;;;13.80;99.90;;;13.10;100.00;101185.44;4186069;28;20021;-73
2023/09/19 02:05:54;;;;;;;5.50;1.67;;;13.70;99.90;;;13.07;100.00;101172.47;4199251;28;20406;-73
2023/09/19 02:07:56;;;;;;;6.93;1.35;;;13.70;99.90;;;13.04;100.00;101183.38;4189458;28;20037;-73
2023/09/19 02:09:57;;;;;;;6.88;1.88;;;13.70;99.90;;;13.00;100.00;101182.03;4202538;28;20059;-73
2023/09/19 02:11:58;;;;;;;6.80;2.00;;;13.60;99.90;;;12.99;100.00;101179.56;4192029;28;20021;-73
2023/09/19 02:13:59;;;;;;;6.90;1.95;;;13.60;99.90;;;12.96;100.00;101186.00;4186941;28;20056;-73
2023/09/19 02:16:00;;;;;;;6.13;1.65;;;13.60;99.90;;;12.91;100.00;101183.00;4187053;28;20025;-73
2023/09/19 02:18:02;;;;;;;7.55;1.75;;;13.60;99.90;;;12.86;100.00;101177.38;4193084;28;20025;-73
2023/09/19 02:20:13;;;;;;;11.50;1.60;;;13.60;99.90;;;12.82;100.00;101172.53;4185949;28;20021;-73
2023/09/19 02:22:14;;;;;;;5.50;1.35;;;13.50;99.90;;;12.82;100.00;101178.66;4202011;28;20027;-73
2023/09/19 02:24:15;;;;;;;4.32;1.13;;;13.50;99.90;;;12.82;100.00;101173.38;4201943;28;20111;-73
2023/09/19 02:26:18;;;;;;;8.15;2.33;;;13.50;99.90;;;12.79;100.00;101184.28;4203569;28;20020;-73
2023/09/19 02:28:20;;;;;;;11.73;2.78;;;13.50;99.90;;;12.77;100.00;101180.97;4203544;28;20055;-73
2023/09/19 02:30:23;;;;;;;6.82;1.92;;;13.50;99.90;;;12.73;100.00;101179.63;4186843;28;20599;-73
2023/09/19 02:32:24;;;;;;;7.45;1.33;;;13.40;99.90;;;12.68;100.00;101184.56;4190533;28;20028;-73
2023/09/19 02:34:25;;;;;;;4.75;1.42;;;13.40;99.90;;;12.67;100.00;101191.69;4189500;28;20582;-73
2023/09/19 02:36:26;;;;;;;3.90;1.33;;;13.40;99.90;;;12.65;100.00;101187.53;4191362;28;20037;-73
2023/09/19 02:38:28;;;;;;;5.53;1.38;;;13.30;99.90;;;12.63;100.00;101185.03;4200132;28;20598;-73
2023/09/19 02:40:29;;;;;;;6.70;1.85;;;13.30;99.90;;;12.66;100.00;101179.41;4185636;28;20029;-73
2023/09/19 02:42:30;;;;;;;8.05;1.60;;;13.30;99.90;;;12.71;100.00;101186.91;4185968;28;20032;-73
2023/09/19 02:44:32;;;;;;;5.40;1.40;;;13.40;99.90;;;12.72;100.00;101175.34;4201986;28;20427;-73
2023/09/19 02:46:36;;;;;;;7.03;1.80;;;13.40;99.90;;;12.75;100.00;101173.16;4186482;28;20025;-73
2023/09/19 02:48:36;;;;;;;4.03;1.48;;;13.40;99.90;;;12.77;100.00;101176.50;4189701;28;20028;-73
2023/09/19 02:50:39;;;;;;;7.45;2.33;;;13.40;99.90;;;12.81;100.00;101174.38;4185491;28;20051;-73
2023/09/19 02:52:43;;;;;;;6.38;1.73;;;13.40;99.90;;;12.84;100.00;101178.53;4195610;28;20438;-73
2023/09/19 02:54:44;;;;;;;5.97;1.40;;;13.50;99.90;;;12.82;100.00;101162.78;4199732;28;20028;-73
2023/09/19 02:56:46;;;;;;;7.90;1.60;;;13.50;99.90;;;12.84;100.00;101171.41;4203000;28;20452;-73
2023/09/19 02:58:48;;;;;;;6.10;1.70;;;13.50;99.90;;;12.83;100.00;101167.09;4202883;28;20056;-73
2023/09/19 03:00:49;;;;;;;5.65;1.63;;;13.50;99.90;;;12.85;100.00;101158.97;4202810;28;20024;-73
2023/09/19 03:02:54;;;;;;;7.30;1.77;;;13.50;99.90;;;12.89;100.00;101161.16;4188502;28;20070;-73
2023/09/19 03:04:56;;;;;;;6.68;1.77;;;13.60;99.90;;;12.95;100.00;101159.69;4186320;28;20041;-73
2023/09/19 03:07:00;;;;;;;6.78;1.40;;;13.60;99.90;;;13.02;100.00;101158.06;4193222;28;20021;-73
2023/09/19 03:09:02;;;;;;;5.80;1.50;;;13.60;99.90;;;13.07;100.00;101166.34;4186016;28;20111;-73
2023/09/19 03:11:05;;;;;;;7.95;1.92;;;13.70;99.90;;;13.10;100.00;101161.59;4199934;28;20020;-73
2023/09/19 03:13:09;;;;;;;6.10;1.50;;;13.70;99.90;;;13.16;100.00;101171.53;4188275;28;20369;-73
2023/09/19 03:15:10;;;;;;;7.70;1.77;;;13.80;99.90;;;13.23;100.00;101169.06;4193628;28;20036;-73
2023/09/19 03:17:11;;;;;;;9.77;2.50;;;13.90;99.90;;;13.30;100.00;101168.25;4186063;28;20037;-73
2023/09/19 03:19:15;;;;;;;9.00;2.47;;;13.90;99.90;;;13.40;100.00;101167.25;4185795;28;20075;-73
2023/09/19 03:21:17;;;;;;;7.20;2.08;;;14.00;99.90;;;13.43;100.00;101172.25;4186234;28;20072;-73
2023/09/19 03:23:17;;;;;;;7.22;1.50;;;14.10;99.90;;;13.49;100.00;101172.41;4193879;28;20039;-73
2023/09/19 03:25:19;;;;;;;8.80;1.50;;;14.10;99.90;;;13.53;100.00;101171.06;4185975;28;20025;-73
2023/09/19 03:27:20;;;;;;;7.28;1.77;;;14.10;99.90;;;13.54;100.00;101169.25;4197731;28;20020;-73
2023/09/19 03:29:22;;;;;;;4.22;1.60;;;14.20;99.90;;;13.57;100.00;101174.22;4190836;28;20025;-73
2023/09/19 03:31:23;;;;;;;6.28;1.40;;;14.20;99.90;;;13.54;100.00;101170.09;4185885;28;20021;-73
2023/09/19 03:33:24;;;;;;;10.30;2.08;;;14.20;99.90;;;13.52;100.00;101169.44;4196962;28;20028;-73
2023/09/19 03:35:24;;;;;;;7.43;1.50;;;14.10;99.90;;;13.48;100.00;101161.97;4188072;28;20020;-73
2023/09/19 03:37:26;;;;;;;10.95;1.50;;;14.10;99.90;;;13.41;100.00;101163.63;4190089;28;20036;-73
2023/09/19 03:39:27;;;;;;;8.43;2.20;;;14.10;99.90;;;13.36;100.00;101165.91;4202027;28;20033;-73
2023/09/19 03:41:27;;;;;;;10.18;2.33;;;14.00;99.90;;;13.25;100.00;101159.13;4188993;28;20025;-73
2023/09/19 03:43:28;;;;;;;6.80;1.70;;;13.90;99.90;;;13.18;100.00;101161.59;4187765;28;20481;-73
2023/09/19 03:45:29;;;;;;;6.00;1.95;;;13.90;99.90;;;13.13;100.00;101165.72;4195720;28;20021;-73
2023/09/19 03:47:30;;;;;;;11.43;2.88;;;13.90;99.90;;;13.04;100.00;101162.19;4184489;28;20029;-73
2023/09/19 03:49:31;;;;;;;6.88;1.60;;;13.80;99.90;;;13.00;100.00;101155.56;4197526;28;20036;-73
2023/09/19 03:51:34;;;;;;;10.43;2.45;;;13.70;99.90;;;12.96;100.00;101153.41;4185519;28;20492;-73
2023/09/19 03:53:35;;;;;;;6.55;1.48;;;13.60;99.90;;;12.84;100.00;101144.09;4184167;28;20033;-73
2023/09/19 03:55:35;;;;;;;9.20;2.50;;;13.60;99.90;;;12.86;100.00;101152.69;4194557;28;20036;-73
2023/09/19 03:57:37;;;;;;;6.70;1.40;;;13.50;99.90;;;12.81;100.00;101150.56;4188829;28;20052;-73
2023/09/19 03:59:38;;;;;;;7.47;2.10;;;13.50;99.90;;;12.80;100.00;101148.88;4185261;28;20029;-73
2023/09/19 04:01:39;;;;;;;5.00;1.40;;;13.50;99.90;;;12.80;100.00;101156.81;4194590;28;20052;-73
2023/09/19 04:03:46;;;;;;;4.65;1.88;;;13.50;99.90;;;12.80;100.00;101159.47;4185392;28;20021;-73
2023/09/19 04:05:48;;;;;;;7.68;2.03;;;13.50;99.90;;;12.80;100.00;101153.34;4185383;28;20369;-73
2023/09/19 04:07:50;;;;;;;5.55;1.45;;;13.50;99.90;;;12.77;100.00;101154.50;4184997;28;20427;-73
2023/09/19 04:09:53;;;;;;;7.35;1.58;;;13.50;99.90;;;12.72;100.00;101152.31;4190122;28;20028;-72
2023/09/19 04:11:54;;;;;;;4.97;1.50;;;13.40;99.90;;;12.77;100.00;101149.19;4185377;28;20032;-73
2023/09/19 04:13:54;;;;;;;12.18;2.45;;;13.50;99.90;;;12.78;100.00;101149.03;4185262;28;20041;-73
2023/09/19 04:15:56;;;;;;;9.20;2.15;;;13.50;99.90;;;12.79;100.00;101147.22;4185149;28;20075;-73
2023/09/19 04:17:57;;;;;;;7.22;2.30;;;13.50;99.90;;;12.83;100.00;101150.38;4189878;28;20091;-73
2023/09/19 04:19:58;;;;;;;6.53;1.45;;;13.50;99.90;;;12.87;100.00;101141.97;4185251;28;20032;-73
2023/09/19 04:21:58;;;;;;;9.60;1.85;;;13.50;99.90;;;12.94;100.00;101148.25;4196241;28;20031;-73
2023/09/19 04:23:59;;;;;;;8.70;1.80;;;13.60;99.90;;;12.99;100.00;101140.66;4183704;28;20018;-73
2023/09/19 04:26:00;;;;;;;7.70;1.88;;;13.60;99.90;;;13.06;100.00;101133.72;4189241;28;20027;-73
2023/09/19 04:28:01;;;;;;;5.78;2.00;;;13.70;99.90;;;13.10;100.00;101127.16;4185012;28;20029;-73
2023/09/19 04:30:10;;;;;;;8.05;1.95;;;13.70;99.90;;;13.14;100.00;101125.00;4199485;28;20047;-73
2023/09/19 04:32:13;;;;;;;4.40;1.20;;;13.80;99.90;;;13.22;100.00;101125.84;4185457;28;20103;-73
2023/09/19 04:34:17;;;;;;;8.30;1.90;;;13.80;99.90;;;13.28;100.00;101127.00;4190152;28;20075;-73
2023/09/19 04:36:17;;;;;;;;;;;13.90;99.90;;;13.27;100.00;101128.81;4187845;28;20021;-73
2023/09/19 04:38:21;;;;;;;8.43;1.83;;;14.00;99.90;;;13.32;100.00;101127.53;4198024;28;19923;-73
2023/09/19 04:40:22;;;;;;;6.25;2.75;;;14.00;99.90;;;13.32;100.00;101134.44;4197221;28;20039;-73
2023/09/19 04:42:25;;;;;;;7.22;2.30;;;14.00;99.90;;;13.32;100.00;101138.13;4185055;28;20021;-73
2023/09/19 04:44:26;;;;;;;5.78;1.30;;;14.00;99.90;;;13.29;100.00;101139.25;4210554;28;20020;-73
2023/09/19 04:46:27;;;;;;;8.50;1.30;;;14.00;99.90;;;13.30;100.00;101127.66;4189616;28;20451;-72
2023/09/19 04:48:29;;;;;;;8.15;2.35;;;14.00;99.90;;;13.25;100.00;101122.88;4187301;28;20032;-73
2023/09/19 04:50:29;;;;;;;6.07;1.85;;;13.90;99.90;;;13.25;100.00;101132.63;4177639;28;20068;-73
2023/09/19 04:52:31;;;;;;;12.00;2.75;;;13.90;99.90;;;13.24;100.00;101133.63;4188011;28;20496;-73
2023/09/19 04:54:33;;;;;;;6.75;1.85;;;13.90;99.90;;;13.22;100.00;101127.66;4188223;28;20021;-73
2023/09/19 04:56:34;;;;;;;8.82;2.33;;;13.90;99.90;;;13.20;100.00;101125.16;4190883;28;20025;-73
2023/09/19 04:58:35;;;;;;;6.68;1.75;;;13.90;99.90;;;13.20;100.00;101130.47;4187154;28;20036;-72
2023/09/19 05:00:36;;;;;;;7.47;1.55;;;13.80;99.90;;;13.18;100.00;101121.03;4198162;28;20033;-73
2023/09/19 05:02:37;;;;;;;7.50;1.80;;;13.90;99.90;;;13.17;100.00;101114.91;4204728;28;20047;-73
2023/09/19 05:04:38;;;;;;;6.60;1.52;;;13.80;99.90;;;13.14;100.00;101127.66;4204771;28;20549;-73
2023/09/19 05:06:39;;;;;;;5.35;1.65;;;13.80;99.90;;;13.07;100.00;101127.44;4196925;28;20025;-73
2023/09/19 05:08:40;;;;;;;7.18;1.73;;;13.80;99.90;;;13.05;100.00;101132.06;4187915;28;20029;-73
2023/09/19 05:10:41;;;;;;;6.07;1.92;;;13.70;99.90;;;13.02;100.00;101136.88;4188053;28;20029;-73
2023/09/19 05:12:45;;;;;;;6.78;1.75;;;13.70;99.90;;;12.97;100.00;101134.69;4203197;28;20036;-73
2023/09/19 05:14:45;;;;;;;9.32;1.75;;;13.60;99.90;;;12.93;100.00;101138.66;4188051;28;20028;-73
2023/09/19 05:16:46;;;;;;;7.65;1.80;;;13.60;99.90;;;12.91;100.00;101130.03;4187932;28;20036;-73
2023/09/19 05:18:49;;;;;;;6.25;1.73;;;13.60;99.90;;;12.90;100.00;101139.00;4187879;28;20032;-73
2023/09/19 05:20:50;;;;;;;5.03;1.92;;;13.60;99.90;;;12.88;100.00;101135.66;4187863;28;20053;-73
2023/09/19 05:23:07;;;;;;;8.30;2.35;;;13.60;99.90;;;12.93;100.00;101143.13;4192994;28;20016;-73
2023/09/19 05:25:15;;;;;;;14.27;2.83;;;13.60;99.90;;;12.92;100.00;101138.81;4191419;28;20047;-73
2023/09/19 05:27:17;;;;;;;6.13;1.48;;;13.60;99.90;;;12.96;100.00;101140.97;4187059;28;20510;-73
2023/09/19 05:29:17;;;;;;;7.07;2.30;;;13.60;99.90;;;13.01;100.00;101141.34;4187838;28;20040;-73
2023/09/19 05:31:18;;;;;;;7.60;2.58;;;13.70;99.90;;;13.02;100.00;101135.03;4195470;28;20028;-73
2023/09/19 05:33:20;;;;;;;8.18;2.25;;;13.70;99.90;;;13.04;100.00;101135.72;4191893;28;20021;-73
2023/09/19 05:35:22;;;;;;;9.50;2.05;;;13.70;99.90;;;13.05;100.00;101133.91;4201914;28;20089;-73
2023/09/19 05:37:26;;;;;;;7.00;1.85;;;13.70;99.90;;;13.07;100.00;101146.00;4196623;28;20033;-73
2023/09/19 05:39:26;;;;;;;11.77;2.67;;;13.70;99.90;;;13.08;100.00;101150.31;4194631;28;20037;-73
2023/09/19 05:41:28;;;;;;;5.78;1.83;;;13.70;99.90;;;13.13;100.00;101155.13;4186621;28;20035;-73
2023/09/19 05:43:28;;;;;;;10.52;2.17;;;13.80;99.90;;;13.16;100.00;101154.81;4188771;28;20044;-73
2023/09/19 05:45:30;;;;;;;4.57;1.92;;;13.80;99.90;;;13.16;100.00;101153.00;4201827;28;20024;-73
2023/09/19 05:47:31;;;;;;;8.02;2.15;;;13.80;99.90;;;13.18;100.00;101150.16;4194391;28;20423;-73
2023/09/19 05:49:32;;;;;;;9.40;1.63;;;13.80;99.90;;;13.18;100.00;101148.34;4186500;28;20033;-73
2023/09/19 05:51:33;;;;;;;6.18;2.00;;;13.90;99.90;;;13.20;100.00;101151.66;4200660;28;20029;-73
2023/09/19 05:53:34;;;;;;;7.20;1.70;;;13.80;99.90;;;13.20;100.00;101158.81;4185078;28;20093;-73
2023/09/19 05:55:35;;;;;;;6.20;1.50;;;13.90;99.90;;;13.24;100.00;101158.28;4194818;28;20024;-73
2023/09/19 05:57:39;;;;;;;6.20;1.85;;;13.90;99.90;;;13.24;100.00;101158.28;4191025;28;20021;-73
2023/09/19 05:59:40;;;;;;;6.70;1.80;;;13.90;99.90;;;13.25;100.00;101159.97;4200164;28;20033;-73
2023/09/19 06:01:41;;;;;;;8.45;2.30;;;13.90;99.90;;;13.28;100.00;101159.63;4185192;28;20029;-72
2023/09/19 06:03:42;;;;;;;10.60;2.88;;;13.90;99.90;;;13.28;100.00;101154.34;4194964;28;20025;-73
2023/09/19 06:05:43;;;;;;;5.85;2.03;;;13.90;99.90;;;13.24;100.00;101158.28;4202817;28;20541;-73
2023/09/19 06:07:44;;;;;;;4.60;1.70;;;13.90;99.90;;;13.18;100.00;101145.69;4186322;28;20074;-73
2023/09/19 06:09:45;;;;;;;6.82;1.70;;;13.80;99.90;;;13.13;100.00;101148.03;4185095;28;20451;-73
2023/09/19 06:11:46;;;;;;;9.00;2.53;;;13.80;99.90;;;13.08;100.00;101147.66;4186213;28;20029;-73
2023/09/19 06:13:47;;;;;;;6.75;1.95;;;13.80;99.90;;;13.02;100.00;101142.97;4185052;28;20103;-73
2023/09/19 06:15:49;;;;;;;5.03;1.63;;;13.70;99.90;;;13.01;100.00;101143.16;4199249;28;20103;-73
2023/09/19 06:17:56;;;;;;;8.82;2.17;;;13.70;99.90;;;13.04;100.00;101145.47;4189669;28;20479;-73
2023/09/19 06:19:57;;;;;;;6.90;1.73;;;13.70;99.90;;;13.02;100.00;101140.31;4186026;28;20033;-73
2023/09/19 06:21:59;;;;;;;9.00;2.20;;;13.70;99.90;;;13.02;100.00;101147.47;4186033;28;20025;-73
2023/09/19 06:24:00;;;;;;;6.05;1.42;;;13.70;99.90;;;13.03;100.00;101147.28;4185737;28;20055;-73
2023/09/19 06:26:01;;;;;;;12.90;3.05;;;13.70;99.90;;;13.04;100.00;101141.00;4189416;28;20020;-73
2023/09/19 06:28:05;;;;;;;7.20;1.25;;;13.70;99.90;;;13.03;100.00;101138.50;4186071;28;20029;-73
2023/09/19 06:30:07;;;;;;;6.50;2.05;;;13.70;99.90;;;13.06;100.00;101144.31;4186045;28;20029;-73
2023/09/19 06:32:09;;;;;;;8.15;2.55;;;13.70;99.90;;;13.10;100.00;101139.56;4185839;28;20021;-73
2023/09/19 06:34:11;;;;;;;6.47;1.58;;;13.80;99.90;;;13.15;100.00;101148.69;4186025;28;20554;-73
2023/09/19 06:36:12;;;;;;;6.30;1.77;;;13.90;99.90;;;13.25;100.00;101145.88;4189129;28;20052;-73
2023/09/19 06:38:13;;;;;;;5.40;1.58;;;13.90;99.90;;;13.37;100.00;101149.03;4142865;28;1233444;-72
2023/09/19 06:40:15;;;;;;;4.18;1.30;;;14.00;99.90;;;13.41;100.00;101139.78;4200744;28;20044;-73
2023/09/19 06:42:17;;;;;;;7.10;1.67;;;14.10;99.90;;;13.48;100.00;101138.09;4192080;28;20507;-73
2023/09/19 06:44:18;;;;;;;7.13;2.22;;;14.10;99.90;;;13.52;100.00;101134.97;4194384;28;20427;-73
2023/09/19 06:46:18;;;;;;;6.63;2.33;;;14.20;99.90;;;13.58;100.00;101142.28;4197643;28;20028;-73
2023/09/19 06:48:21;;;;;;;4.47;2.13;;;14.20;99.90;;;13.64;100.00;101143.44;4187425;28;20036;-72
2023/09/19 06:50:22;;;;;;;6.18;1.92;;;14.30;99.90;;;13.70;100.00;101140.13;4191255;28;20038;-73
2023/09/19 06:52:23;;;;;;;5.63;2.03;;;14.30;99.90;;;13.70;100.00;101145.41;4184904;28;20037;-72
2023/09/19 06:54:24;;;;;;;5.10;1.35;;;14.30;99.90;;;13.70;100.00;101148.06;4197928;28;20032;-72
2023/09/19 06:56:25;;;;;;;4.93;1.40;;;14.30;99.90;;;13.68;100.00;101150.03;4195703;28;20036;-73
2023/09/19 06:58:26;;;;;;;6.18;1.90;;;14.30;99.90;;;13.64;100.00;101146.09;4190659;28;20024;-73
2023/09/19 07:00:28;;;;;;;7.05;1.88;;;14.30;99.90;;;13.62;100.00;101148.06;4199190;28;20099;-73
2023/09/19 07:02:29;;;;;;;4.47;1.52;;;14.30;99.90;;;13.62;100.00;101134.81;4201602;28;20095;-72
2023/09/19 07:04:29;;;;;;;7.72;2.10;;;14.30;99.90;;;13.62;100.00;101140.94;4202737;28;20028;-73
2023/09/19 07:06:30;;;;;;;5.03;1.48;;;14.30;99.90;;;13.66;100.00;101136.13;4197188;28;20028;-73
2023/09/19 07:08:31;;;;;;;9.98;1.90;;;14.30;99.90;;;13.72;100.00;101130.16;4192856;28;20400;-73
2023/09/19 07:10:33;;;;;;;4.65;1.52;;;14.40;99.90;;;13.84;100.00;101128.81;4184999;28;20025;-72
2023/09/19 07:12:34;;;;;;;4.93;1.58;;;14.50;99.90;;;13.94;100.00;101140.09;4200975;28;20058;-72
2023/09/19 07:14:35;;;;;;;4.78;1.38;;;14.60;99.90;;;14.07;100.00;101136.91;4195802;28;20036;-72
2023/09/19 07:16:36;;;;;;;6.82;2.13;;;14.70;99.90;;;14.20;100.00;101135.41;4190518;28;20115;-72
2023/09/19 07:18:37;;;;;;;9.15;2.13;;;14.80;99.90;;;14.31;100.00;101142.97;4186145;28;20017;-73
2023/09/19 07:20:38;;;;;;;7.30;1.92;;;15.00;99.90;;;14.43;100.00;101142.63;4185852;28;20036;-72
2023/09/19 07:22:39;;;;;;;7.40;2.30;;;15.10;99.90;;;14.57;100.00;101142.78;4189687;28;20167;-72
2023/09/19 07:24:40;;;;;;;6.68;1.98;;;15.20;99.90;;;14.72;100.00;101141.06;4186215;28;20119;-73
2023/09/19 07:26:41;;;;;;;5.93;2.17;;;15.30;99.90;;;14.91;100.00;101140.63;4187709;28;20028;-74
2023/09/19 07:28:42;;;;;;;7.93;1.52;;;15.50;99.90;;;15.04;100.00;101142.72;4197726;28;20051;-74
2023/09/19 07:30:43;;;;;;;7.05;1.40;;;15.60;99.90;;;15.21;100.00;101162.03;4188797;28;20024;-74
2023/09/19 07:32:44;;;;;;;5.85;2.10;;;15.70;99.90;;;15.30;100.00;101145.84;4185834;28;20504;-74
2023/09/19 07:34:45;;;;;;;3.92;1.30;;;15.90;99.90;;;15.41;100.00;101136.66;4186515;28;20033;-74
2023/09/19 07:36:47;;;;;;;6.40;2.20;;;16.00;99.90;;;15.55;100.00;101148.38;4200465;28;20032;-74
2023/09/19 07:38:48;;;;;;;10.07;2.15;;;16.10;99.90;;;15.69;100.00;101144.91;4196260;28;20037;-74
2023/09/19 07:40:48;;;;;;;7.68;1.70;;;16.20;99.90;;;15.77;100.00;101143.00;4185644;28;20025;-74
2023/09/19 07:42:50;;;;;;;11.10;2.80;;;16.40;99.90;;;15.92;100.00;101135.88;4185227;28;20017;-74
2023/09/19 07:44:51;;;;;;;4.45;1.25;;;16.50;99.90;;;16.09;100.00;101143.72;4214843;28;20031;-74
2023/09/19 07:46:52;;;;;;;5.50;1.50;;;16.60;99.90;;;16.26;100.00;101151.34;4198746;28;20481;-74
2023/09/19 07:48:52;;;;;;;4.90;1.45;;;16.80;99.90;;;16.37;100.00;101139.41;4185690;28;20027;-74
2023/09/19 07:50:54;;;;;;;7.07;2.33;;;16.90;99.90;;;16.53;100.00;101140.06;4194402;28;20025;-74
2023/09/19 07:52:56;;;;;;;7.70;2.15;;;17.10;99.90;;;16.66;100.00;101134.13;4185264;28;20063;-74
2023/09/19 07:55:01;;;;;;;7.40;2.85;;;17.20;99.90;;;16.85;100.00;101130.03;4200933;28;20501;-74
2023/09/19 07:57:03;;;;;;;9.02;2.70;;;17.40;99.90;;;17.02;100.00;101136.81;4194738;28;20031;-74
2023/09/19 07:59:03;;;;;;;6.75;1.50;;;17.60;99.90;;;17.19;100.00;101135.53;4185516;28;20025;-74
2023/09/19 08:01:10;;;;;;;8.30;2.40;;;17.80;99.90;;;17.46;100.00;101126.78;4185378;28;20500;-74
2023/09/19 08:03:14;;;;;;;9.95;2.13;;;17.90;99.90;;;17.67;100.00;101129.47;4184131;28;20561;-74
2023/09/19 08:05:15;;;;;;;8.65;2.03;;;18.20;99.90;;;17.86;100.00;101137.84;4186598;28;20513;-74
2023/09/19 08:07:16;;;;;;;11.50;2.42;;;18.30;99.90;;;18.11;100.00;101136.34;4189386;28;20100;-74
2023/09/19 08:09:20;;;;;;;9.18;1.95;;;18.50;99.90;;;18.35;100.00;101132.38;4185234;28;20579;-74
2023/09/19 08:11:24;;;;;;;;;;;18.80;99.90;;;18.46;100.00;101132.66;4188891;28;20025;-74
2023/09/19 08:13:26;;;;;;;9.48;2.88;;;18.90;99.90;;;18.58;100.00;101136.44;4184231;28;19909;-74
2023/09/19 08:15:27;;;;;;;13.45;3.97;;;19.10;99.90;;;18.78;100.00;101131.19;4196906;28;20029;-74
2023/09/19 08:17:27;;;;;;;8.75;2.15;;;19.20;99.90;;;18.82;100.00;101128.97;4186831;28;20025;-74
2023/09/19 08:19:29;;;;;;;8.10;2.28;;;19.40;99.90;;;18.95;100.00;101129.81;4185110;28;20040;-74
2023/09/19 08:21:30;;;;;;;11.40;2.17;;;19.50;99.90;;;19.09;100.00;101128.00;4200548;28;20094;-74
2023/09/19 08:23:32;;;;;;;7.78;1.85;;;19.60;99.90;;;19.08;100.00;101129.88;4195292;28;20417;-74
2023/09/19 08:25:33;;;;;;;8.52;3.05;;;19.70;99.90;;;19.11;100.00;101132.13;4187041;28;20146;-74
2023/09/19 08:27:34;;;;;;;7.90;2.55;;;19.70;99.90;;;19.07;100.00;101127.38;4185225;28;20400;-74